createdAt,value
2022-10-04T00:00:16.980Z,0.00
2022-10-04T00:01:16.979Z,0.00
2022-10-04T00:02:17.040Z,0.00
2022-10-04T00:03:16.998Z,0.00
2022-10-04T00:04:16.929Z,0.00
2022-10-04T00:05:16.922Z,0.00
2022-10-04T00:06:16.972Z,0.00
2022-10-04T00:07:16.905Z,0.00
2022-10-04T00:08:16.908Z,0.00
2022-10-04T00:09:16.904Z,0.00
2022-10-04T00:10:16.876Z,0.00
2022-10-04T00:11:16.871Z,0.00
2022-10-04T00:12:16.857Z,0.00
2022-10-04T00:13:16.831Z,0.00
2022-10-04T00:14:16.835Z,0.00
2022-10-04T00:15:16.809Z,0.00
2022-10-04T00:16:16.874Z,0.00
2022-10-04T00:17:16.788Z,0.00
2022-10-04T00:18:16.783Z,0.00
2022-10-04T00:19:16.765Z,0.00
2022-10-04T00:20:16.819Z,0.00
2022-10-04T00:21:16.745Z,0.00
2022-10-04T00:22:16.732Z,0.00
2022-10-04T00:23:16.739Z,0.00
2022-10-04T00:24:16.710Z,0.00
2022-10-04T00:25:16.701Z,0.00
2022-10-04T00:26:16.692Z,0.00
2022-10-04T00:27:16.696Z,0.00
2022-10-04T00:28:16.744Z,0.00
2022-10-04T00:29:17.386Z,0.00
2022-10-04T00:30:16.648Z,0.00
2022-10-04T00:31:16.705Z,0.00
2022-10-04T00:32:16.636Z,0.00
2022-10-04T00:33:16.617Z,0.00
2022-10-04T00:34:16.602Z,0.00
2022-10-04T00:35:16.594Z,0.00
2022-10-04T00:36:16.583Z,0.00
2022-10-04T00:37:16.584Z,0.00
2022-10-04T00:38:16.558Z,0.00
2022-10-04T00:39:16.551Z,0.00
2022-10-04T00:40:16.540Z,0.00
2022-10-04T00:41:16.533Z,0.00
2022-10-04T00:42:16.530Z,0.00
2022-10-04T00:43:16.578Z,0.00
2022-10-04T00:44:16.496Z,0.00
2022-10-04T00:45:16.486Z,0.00
2022-10-04T00:46:16.526Z,0.00
2022-10-04T00:47:16.490Z,0.00
2022-10-04T00:48:16.451Z,0.00
2022-10-04T00:49:16.444Z,0.00
2022-10-04T00:50:16.432Z,0.00
2022-10-04T00:51:16.420Z,0.00
2022-10-04T00:52:16.410Z,0.00
2022-10-04T00:53:16.410Z,0.00
2022-10-04T00:54:16.389Z,0.00
2022-10-04T00:55:16.376Z,0.00
2022-10-04T00:56:16.371Z,0.00
2022-10-04T00:57:16.362Z,0.00
2022-10-04T00:58:16.355Z,0.00
2022-10-04T00:59:16.350Z,0.00
2022-10-04T01:00:16.328Z,0.00
2022-10-04T01:01:16.446Z,0.00
2022-10-04T01:02:16.380Z,0.00
2022-10-04T01:03:16.309Z,0.00
2022-10-04T01:04:16.278Z,0.00
2022-10-04T01:05:16.271Z,0.00
2022-10-04T01:06:16.260Z,0.00
2022-10-04T01:07:16.251Z,0.00
2022-10-04T01:08:16.249Z,0.00
2022-10-04T01:09:16.227Z,0.00
2022-10-04T01:10:16.213Z,0.00
2022-10-04T01:11:16.204Z,0.00
2022-10-04T01:12:16.191Z,0.00
2022-10-04T01:13:16.233Z,0.00
2022-10-04T01:14:16.172Z,0.00
2022-10-04T01:15:16.177Z,0.00
2022-10-04T01:16:16.205Z,0.00
2022-10-04T01:17:16.138Z,0.00
2022-10-04T01:18:16.140Z,0.00
2022-10-04T01:19:16.140Z,0.00
2022-10-04T01:20:16.111Z,0.00
2022-10-04T01:21:16.101Z,0.00
2022-10-04T01:22:16.083Z,0.00
2022-10-04T01:23:16.091Z,0.00
2022-10-04T01:24:16.066Z,0.00
2022-10-04T01:25:16.051Z,0.00
2022-10-04T01:26:16.039Z,0.00
2022-10-04T01:27:16.030Z,0.00
2022-10-04T01:28:16.127Z,0.00
2022-10-04T01:29:16.009Z,0.00
2022-10-04T01:30:15.997Z,0.00
2022-10-04T01:31:16.068Z,0.00
2022-10-04T01:32:15.977Z,0.00
2022-10-04T01:33:15.976Z,0.00
2022-10-04T01:34:15.955Z,0.00
2022-10-04T01:35:15.943Z,0.00
2022-10-04T01:36:15.931Z,0.00
2022-10-04T01:37:15.923Z,0.00
2022-10-04T01:38:15.918Z,0.00
2022-10-04T01:39:15.903Z,0.00
2022-10-04T01:40:15.887Z,0.00
2022-10-04T01:41:15.877Z,0.00
2022-10-04T01:42:15.869Z,0.00
2022-10-04T01:43:15.866Z,0.00
2022-10-04T01:44:15.844Z,0.00
2022-10-04T01:45:15.836Z,0.00
2022-10-04T01:46:15.857Z,0.00
2022-10-04T01:47:15.845Z,0.00
2022-10-04T01:48:15.801Z,0.00
2022-10-04T01:49:15.791Z,0.00
2022-10-04T01:50:16.108Z,0.00
2022-10-04T01:51:15.768Z,0.00
2022-10-04T01:52:15.769Z,0.00
2022-10-04T01:53:15.747Z,0.00
2022-10-04T01:54:15.738Z,0.00
2022-10-04T01:55:15.730Z,0.00
2022-10-04T01:56:15.715Z,0.00
2022-10-04T01:57:15.716Z,0.00
2022-10-04T01:58:15.692Z,0.00
2022-10-04T01:59:15.683Z,0.00
2022-10-04T02:00:15.672Z,0.00
2022-10-04T02:01:15.690Z,0.00
2022-10-04T02:02:15.662Z,0.00
2022-10-04T02:03:15.659Z,0.00
2022-10-04T02:04:18.604Z,0.00
2022-10-04T02:05:16.619Z,0.00
2022-10-04T02:06:15.607Z,0.00
2022-10-04T02:07:15.612Z,0.00
2022-10-04T02:08:15.586Z,0.00
2022-10-04T02:09:15.577Z,0.00
2022-10-04T02:10:15.567Z,0.00
2022-10-04T02:11:15.553Z,0.00
2022-10-04T02:12:15.557Z,0.00
2022-10-04T02:13:15.530Z,0.00
2022-10-04T02:14:15.521Z,0.00
2022-10-04T02:15:15.508Z,0.00
2022-10-04T02:16:15.537Z,0.00
2022-10-04T02:17:15.499Z,0.00
2022-10-04T02:18:15.478Z,0.00
2022-10-04T02:19:15.482Z,0.00
2022-10-04T02:20:15.463Z,0.00
2022-10-04T02:21:15.447Z,0.00
2022-10-04T02:22:15.448Z,0.00
2022-10-04T02:23:15.422Z,0.00
2022-10-04T02:24:15.414Z,0.00
2022-10-04T02:25:15.401Z,0.00
2022-10-04T02:26:15.391Z,0.00
2022-10-04T02:27:15.386Z,0.00
2022-10-04T02:28:15.426Z,0.00
2022-10-04T02:29:15.356Z,0.00
2022-10-04T02:30:15.361Z,0.00
2022-10-04T02:31:15.378Z,0.00
2022-10-04T02:32:15.339Z,0.00
2022-10-04T02:33:15.316Z,0.00
2022-10-04T02:34:15.304Z,0.00
2022-10-04T02:35:15.310Z,0.00
2022-10-04T02:36:15.285Z,0.00
2022-10-04T02:37:15.342Z,0.00
2022-10-04T02:38:15.262Z,0.00
2022-10-04T02:39:15.249Z,0.00
2022-10-04T02:40:15.259Z,0.00
2022-10-04T02:41:15.230Z,0.00
2022-10-04T02:42:15.248Z,0.00
2022-10-04T02:43:15.205Z,0.00
2022-10-04T02:44:15.194Z,0.00
2022-10-04T02:45:15.183Z,0.00
2022-10-04T02:46:15.285Z,0.00
2022-10-04T02:47:15.178Z,0.00
2022-10-04T02:48:15.155Z,0.00
2022-10-04T02:49:15.144Z,0.00
2022-10-04T02:50:15.130Z,0.00
2022-10-04T02:51:15.240Z,0.00
2022-10-04T02:52:15.120Z,0.00
2022-10-04T02:53:15.098Z,0.00
2022-10-04T02:54:15.090Z,0.00
2022-10-04T02:55:15.076Z,0.00
2022-10-04T02:56:15.068Z,0.00
2022-10-04T02:57:15.069Z,0.00
2022-10-04T02:58:15.045Z,0.00
2022-10-04T02:59:15.042Z,0.00
2022-10-04T03:00:15.020Z,0.00
2022-10-04T03:01:15.081Z,0.00
2022-10-04T03:02:15.123Z,0.00
2022-10-04T03:03:14.993Z,0.00
2022-10-04T03:04:15.023Z,0.00
2022-10-04T03:05:14.980Z,0.00
2022-10-04T03:06:14.956Z,0.00
2022-10-04T03:07:14.972Z,0.00
2022-10-04T03:08:14.935Z,0.00
2022-10-04T03:09:14.922Z,0.00
2022-10-04T03:10:14.915Z,0.00
2022-10-04T03:11:14.901Z,0.00
2022-10-04T03:12:14.904Z,0.00
2022-10-04T03:13:14.879Z,0.00
2022-10-04T03:14:14.871Z,0.00
2022-10-04T03:15:14.857Z,0.00
2022-10-04T03:16:14.887Z,0.00
2022-10-04T03:17:14.846Z,0.00
2022-10-04T03:18:14.831Z,0.00
2022-10-04T03:19:14.814Z,0.00
2022-10-04T03:20:14.810Z,0.00
2022-10-04T03:21:14.794Z,0.00
2022-10-04T03:22:14.797Z,0.00
2022-10-04T03:23:14.787Z,0.00
2022-10-04T03:24:14.761Z,0.00
2022-10-04T03:25:14.748Z,0.00
2022-10-04T03:26:14.739Z,0.00
2022-10-04T03:27:14.736Z,0.00
2022-10-04T03:28:14.754Z,0.00
2022-10-04T03:29:14.706Z,0.00
2022-10-04T03:30:14.697Z,0.00
2022-10-04T03:31:14.787Z,0.00
2022-10-04T03:32:14.685Z,0.00
2022-10-04T03:33:14.667Z,0.00
2022-10-04T03:34:14.656Z,0.00
2022-10-04T03:35:14.641Z,0.00
2022-10-04T03:36:14.633Z,0.00
2022-10-04T03:37:14.630Z,0.00
2022-10-04T03:38:14.614Z,0.00
2022-10-04T03:39:14.614Z,0.00
2022-10-04T03:40:14.593Z,0.00
2022-10-04T03:41:14.574Z,0.00
2022-10-04T03:42:14.581Z,0.00
2022-10-04T03:43:14.552Z,0.00
2022-10-04T03:44:14.547Z,0.00
2022-10-04T03:45:14.531Z,0.00
2022-10-04T03:46:14.628Z,0.00
2022-10-04T03:47:14.520Z,0.00
2022-10-04T03:48:14.505Z,0.00
2022-10-04T03:49:14.493Z,0.00
2022-10-04T03:50:14.479Z,0.00
2022-10-04T03:51:14.466Z,0.00
2022-10-04T03:52:14.472Z,0.00
2022-10-04T03:53:14.451Z,0.00
2022-10-04T03:54:14.437Z,0.00
2022-10-04T03:55:14.442Z,0.00
2022-10-04T03:56:14.417Z,0.00
2022-10-04T03:57:14.418Z,0.00
2022-10-04T03:58:14.390Z,0.00
2022-10-04T03:59:14.383Z,0.00
2022-10-04T04:00:14.369Z,0.00
2022-10-04T04:01:14.416Z,0.00
2022-10-04T04:02:14.466Z,0.00
2022-10-04T04:03:14.338Z,0.00
2022-10-04T04:04:14.325Z,0.00
2022-10-04T04:05:14.318Z,0.00
2022-10-04T04:06:14.306Z,0.00
2022-10-04T04:07:14.305Z,0.00
2022-10-04T04:08:14.281Z,0.00
2022-10-04T04:09:14.270Z,0.00
2022-10-04T04:10:16.810Z,0.00
2022-10-04T04:11:14.266Z,0.00
2022-10-04T04:12:14.252Z,0.00
2022-10-04T04:13:14.227Z,0.00
2022-10-04T04:14:14.217Z,0.00
2022-10-04T04:15:14.208Z,0.00
2022-10-04T04:16:14.278Z,0.00
2022-10-04T04:17:14.196Z,0.00
2022-10-04T04:18:14.174Z,0.00
2022-10-04T04:19:14.163Z,0.00
2022-10-04T04:20:14.150Z,0.00
2022-10-04T04:21:14.140Z,0.00
2022-10-04T04:22:14.146Z,0.00
2022-10-04T04:23:14.117Z,0.00
2022-10-04T04:24:14.110Z,0.00
2022-10-04T04:25:14.176Z,0.00
2022-10-04T04:26:14.090Z,0.00
2022-10-04T04:27:14.105Z,0.00
2022-10-04T04:28:14.212Z,0.00
2022-10-04T04:29:14.051Z,0.00
2022-10-04T04:30:14.043Z,0.00
2022-10-04T04:31:14.059Z,0.00
2022-10-04T04:32:14.032Z,0.00
2022-10-04T04:33:15.692Z,0.00
2022-10-04T04:34:14.002Z,0.00
2022-10-04T04:35:13.987Z,0.00
2022-10-04T04:36:13.980Z,0.00
2022-10-04T04:37:13.979Z,0.00
2022-10-04T04:38:13.955Z,0.00
2022-10-04T04:39:13.944Z,0.00
2022-10-04T04:40:13.935Z,0.00
2022-10-04T04:41:13.921Z,4.00
2022-10-04T04:42:13.922Z,4.00
2022-10-04T04:43:13.920Z,0.00
2022-10-04T04:44:13.891Z,4.00
2022-10-04T04:45:13.880Z,0.00
2022-10-04T04:46:27.273Z,4.00
2022-10-04T04:47:18.124Z,4.00
2022-10-04T04:48:13.849Z,4.00
2022-10-04T04:49:13.836Z,8.00
2022-10-04T04:50:13.832Z,8.00
2022-10-04T04:51:13.812Z,8.00
2022-10-04T04:52:13.827Z,12.00
2022-10-04T04:53:13.792Z,12.00
2022-10-04T04:54:13.789Z,16.00
2022-10-04T04:55:13.772Z,16.00
2022-10-04T04:56:17.452Z,24.00
2022-10-04T04:57:13.752Z,24.00
2022-10-04T04:58:13.754Z,24.00
2022-10-04T04:59:13.746Z,28.00
2022-10-04T05:00:13.717Z,28.00
2022-10-04T05:01:13.788Z,32.00
2022-10-04T05:02:13.822Z,28.00
2022-10-04T05:03:13.694Z,24.00
2022-10-04T05:04:13.680Z,28.00
2022-10-04T05:05:13.671Z,32.00
2022-10-04T05:06:13.656Z,36.00
2022-10-04T05:07:13.654Z,40.00
2022-10-04T05:08:13.644Z,40.00
2022-10-04T05:09:13.618Z,48.00
2022-10-04T05:10:13.608Z,56.00
2022-10-04T05:11:13.594Z,68.00
2022-10-04T05:12:13.587Z,76.00
2022-10-04T05:13:13.588Z,88.00
2022-10-04T05:14:13.564Z,112.00
2022-10-04T05:15:15.347Z,148.00
2022-10-04T05:16:13.590Z,176.00
2022-10-04T05:17:13.548Z,196.00
2022-10-04T05:18:13.556Z,224.00
2022-10-04T05:19:13.508Z,244.00
2022-10-04T05:20:13.500Z,268.00
2022-10-04T05:21:13.524Z,292.00
2022-10-04T05:22:13.477Z,320.00
2022-10-04T05:23:13.476Z,356.00
2022-10-04T05:24:13.456Z,388.00
2022-10-04T05:25:13.446Z,432.00
2022-10-04T05:26:13.434Z,488.00
2022-10-04T05:27:13.439Z,472.00
2022-10-04T05:28:13.468Z,440.00
2022-10-04T05:29:13.399Z,420.00
2022-10-04T05:30:13.391Z,412.00
2022-10-04T05:31:13.446Z,416.00
2022-10-04T05:32:13.487Z,424.00
2022-10-04T05:33:13.368Z,448.00
2022-10-04T05:34:13.346Z,476.00
2022-10-04T05:35:13.333Z,532.00
2022-10-04T05:36:13.322Z,632.00
2022-10-04T05:37:13.316Z,756.00
2022-10-04T05:38:13.326Z,1032.00
2022-10-04T05:39:13.294Z,1240.00
2022-10-04T05:40:13.284Z,1348.00
2022-10-04T05:41:13.273Z,1340.00
2022-10-04T05:42:13.258Z,1496.00
2022-10-04T05:43:13.258Z,2180.00
2022-10-04T05:44:13.236Z,1976.00
2022-10-04T05:45:13.229Z,1220.00
2022-10-04T05:46:13.254Z,1260.00
2022-10-04T05:47:13.221Z,1380.00
2022-10-04T05:48:13.210Z,1440.00
2022-10-04T05:49:18.167Z,1520.00
2022-10-04T05:50:14.171Z,1652.00
2022-10-04T05:51:13.160Z,1680.00
2022-10-04T05:52:13.158Z,1848.00
2022-10-04T05:53:13.152Z,2008.00
2022-10-04T05:54:13.130Z,1864.00
2022-10-04T05:55:13.204Z,1540.00
2022-10-04T05:56:13.116Z,1284.00
2022-10-04T05:57:13.118Z,1416.00
2022-10-04T05:58:13.097Z,1316.00
2022-10-04T05:59:13.073Z,1232.00
2022-10-04T06:00:13.063Z,992.00
2022-10-04T06:01:13.140Z,1016.00
2022-10-04T06:02:13.107Z,1288.00
2022-10-04T06:03:13.061Z,1072.00
2022-10-04T06:04:13.020Z,972.00
2022-10-04T06:05:13.012Z,1092.00
2022-10-04T06:06:13.011Z,1292.00
2022-10-04T06:07:12.991Z,1048.00
2022-10-04T06:08:12.995Z,948.00
2022-10-04T06:09:12.966Z,1140.00
2022-10-04T06:10:12.955Z,1228.00
2022-10-04T06:11:12.945Z,1296.00
2022-10-04T06:12:12.935Z,1664.00
2022-10-04T06:13:12.936Z,1956.00
2022-10-04T06:14:12.913Z,2080.00
2022-10-04T06:15:12.900Z,2348.00
2022-10-04T06:16:12.950Z,2176.00
2022-10-04T06:17:12.881Z,2428.00
2022-10-04T06:18:12.885Z,2456.00
2022-10-04T06:19:12.877Z,2160.00
2022-10-04T06:20:12.848Z,2204.00
2022-10-04T06:21:12.837Z,2200.00
2022-10-04T06:22:12.828Z,2368.00
2022-10-04T06:23:12.831Z,2272.00
2022-10-04T06:24:12.806Z,1928.00
2022-10-04T06:25:12.795Z,1576.00
2022-10-04T06:26:12.783Z,1560.00
2022-10-04T06:27:12.771Z,1784.00
2022-10-04T06:28:12.785Z,1720.00
2022-10-04T06:29:18.346Z,1536.00
2022-10-04T06:30:12.737Z,1336.00
2022-10-04T06:31:12.780Z,1372.00
2022-10-04T06:32:12.730Z,1172.00
2022-10-04T06:33:12.728Z,1016.00
2022-10-04T06:34:12.694Z,1252.00
2022-10-04T06:35:12.703Z,1444.00
2022-10-04T06:36:12.672Z,1280.00
2022-10-04T06:37:12.663Z,1360.00
2022-10-04T06:38:12.666Z,1568.00
2022-10-04T06:39:12.642Z,1616.00
2022-10-04T06:40:12.630Z,1360.00
2022-10-04T06:41:12.673Z,1132.00
2022-10-04T06:42:12.609Z,996.00
2022-10-04T06:43:12.614Z,924.00
2022-10-04T06:44:12.585Z,900.00
2022-10-04T06:45:12.579Z,864.00
2022-10-04T06:46:12.618Z,904.00
2022-10-04T06:47:12.555Z,1104.00
2022-10-04T06:48:12.558Z,1104.00
2022-10-04T06:49:12.534Z,1056.00
2022-10-04T06:50:12.520Z,1000.00
2022-10-04T06:51:12.529Z,1028.00
2022-10-04T06:52:16.730Z,1036.00
2022-10-04T06:53:12.501Z,972.00
2022-10-04T06:54:12.477Z,968.00
2022-10-04T06:55:12.471Z,872.00
2022-10-04T06:56:12.458Z,912.00
2022-10-04T06:57:12.454Z,928.00
2022-10-04T06:58:12.457Z,892.00
2022-10-04T06:59:12.426Z,820.00
2022-10-04T07:00:12.413Z,836.00
2022-10-04T07:01:12.442Z,824.00
2022-10-04T07:02:12.447Z,840.00
2022-10-04T07:03:12.423Z,864.00
2022-10-04T07:04:12.369Z,772.00
2022-10-04T07:05:12.361Z,820.00
2022-10-04T07:06:12.347Z,912.00
2022-10-04T07:07:12.452Z,900.00
2022-10-04T07:08:12.369Z,856.00
2022-10-04T07:09:12.345Z,864.00
2022-10-04T07:10:12.309Z,940.00
2022-10-04T07:11:12.559Z,892.00
2022-10-04T07:12:12.286Z,828.00
2022-10-04T07:13:12.286Z,896.00
2022-10-04T07:14:12.271Z,996.00
2022-10-04T07:15:12.255Z,1144.00
2022-10-04T07:16:12.311Z,1232.00
2022-10-04T07:17:12.232Z,1204.00
2022-10-04T07:18:12.233Z,1556.00
2022-10-04T07:19:12.208Z,1936.00
2022-10-04T07:20:12.202Z,1988.00
2022-10-04T07:21:12.187Z,1756.00
2022-10-04T07:22:12.183Z,1684.00
2022-10-04T07:23:12.190Z,2036.00
2022-10-04T07:24:12.191Z,2664.00
2022-10-04T07:25:12.144Z,3232.00
2022-10-04T07:26:12.134Z,3096.00
2022-10-04T07:27:12.122Z,2624.00
2022-10-04T07:28:12.216Z,2168.00
2022-10-04T07:29:12.104Z,1844.00
2022-10-04T07:30:12.090Z,1612.00
2022-10-04T07:31:12.187Z,1820.00
2022-10-04T07:32:12.071Z,1892.00
2022-10-04T07:33:12.069Z,1696.00
2022-10-04T07:34:12.066Z,1468.00
2022-10-04T07:35:12.034Z,1440.00
2022-10-04T07:36:12.023Z,1520.00
2022-10-04T07:37:12.014Z,1380.00
2022-10-04T07:38:12.030Z,1176.00
2022-10-04T07:39:12.104Z,1144.00
2022-10-04T07:40:11.980Z,1048.00
2022-10-04T07:41:11.976Z,992.00
2022-10-04T07:42:11.956Z,964.00
2022-10-04T07:43:11.957Z,1096.00
2022-10-04T07:44:11.951Z,1212.00
2022-10-04T07:45:11.927Z,1252.00
2022-10-04T07:46:11.977Z,1448.00
2022-10-04T07:47:11.922Z,1524.00
2022-10-04T07:48:11.910Z,1460.00
2022-10-04T07:49:11.883Z,1720.00
2022-10-04T07:50:11.870Z,1568.00
2022-10-04T07:51:11.880Z,1500.00
2022-10-04T07:52:11.847Z,1556.00
2022-10-04T07:53:11.850Z,1456.00
2022-10-04T07:54:11.829Z,1304.00
2022-10-04T07:55:11.877Z,1188.00
2022-10-04T07:56:11.804Z,1188.00
2022-10-04T07:57:11.794Z,1144.00
2022-10-04T07:58:11.793Z,1092.00
2022-10-04T07:59:11.775Z,1208.00
2022-10-04T08:00:11.762Z,1152.00
2022-10-04T08:01:11.759Z,1552.00
2022-10-04T08:02:11.891Z,1836.00
2022-10-04T08:03:11.807Z,1336.00
2022-10-04T08:04:11.717Z,1448.00
2022-10-04T08:05:11.708Z,1424.00
2022-10-04T08:06:11.694Z,1572.00
2022-10-04T08:07:11.711Z,1448.00
2022-10-04T08:08:11.694Z,1700.00
2022-10-04T08:09:11.664Z,2256.00
2022-10-04T08:10:11.654Z,3380.00
2022-10-04T08:11:11.661Z,4012.00
2022-10-04T08:12:11.630Z,3720.00
2022-10-04T08:13:11.632Z,3600.00
2022-10-04T08:14:11.606Z,4240.00
2022-10-04T08:15:11.596Z,4780.00
2022-10-04T08:16:11.721Z,4300.00
2022-10-04T08:17:15.462Z,2356.00
2022-10-04T08:18:11.571Z,2612.00
2022-10-04T08:19:11.555Z,4080.00
2022-10-04T08:20:11.544Z,3552.00
2022-10-04T08:21:11.531Z,3356.00
2022-10-04T08:22:11.523Z,4524.00
2022-10-04T08:23:11.518Z,7560.00
2022-10-04T08:24:11.513Z,9220.00
2022-10-04T08:25:11.489Z,9656.00
2022-10-04T08:26:11.490Z,8052.00
2022-10-04T08:27:11.488Z,10244.00
2022-10-04T08:28:11.537Z,14520.00
2022-10-04T08:29:11.444Z,6864.00
2022-10-04T08:30:11.444Z,6060.00
2022-10-04T08:31:11.528Z,7528.00
2022-10-04T08:32:11.408Z,5740.00
2022-10-04T08:33:11.425Z,6044.00
2022-10-04T08:34:11.387Z,3456.00
2022-10-04T08:35:11.383Z,3248.00
2022-10-04T08:36:11.366Z,3736.00
2022-10-04T08:37:11.367Z,5720.00
2022-10-04T08:38:11.350Z,11920.00
2022-10-04T08:39:11.339Z,10288.00
2022-10-04T08:40:13.304Z,8340.00
2022-10-04T08:41:11.364Z,7172.00
2022-10-04T08:42:11.317Z,6316.00
2022-10-04T08:43:11.308Z,6020.00
2022-10-04T08:44:11.288Z,6360.00
2022-10-04T08:45:11.272Z,6852.00
2022-10-04T08:46:11.404Z,9388.00
2022-10-04T08:47:11.263Z,8620.00
2022-10-04T08:48:11.237Z,10888.00
2022-10-04T08:49:11.234Z,15300.00
2022-10-04T08:50:11.217Z,11228.00
2022-10-04T08:51:11.208Z,17280.00
2022-10-04T08:52:11.465Z,14196.00
2022-10-04T08:53:11.307Z,11408.00
2022-10-04T08:54:11.171Z,12244.00
2022-10-04T08:55:11.164Z,15560.00
2022-10-04T08:56:11.152Z,13404.00
2022-10-04T08:57:15.673Z,17152.00
2022-10-04T08:58:12.130Z,13484.00
2022-10-04T08:59:11.140Z,23200.00
2022-10-04T09:00:11.107Z,19808.00
2022-10-04T09:01:11.112Z,22880.00
2022-10-04T09:02:11.125Z,16544.00
2022-10-04T09:03:11.078Z,16928.00
2022-10-04T09:04:11.144Z,29728.00
2022-10-04T09:05:11.058Z,28608.00
2022-10-04T09:06:11.046Z,14444.00
2022-10-04T09:07:11.046Z,10336.00
2022-10-04T09:08:11.024Z,9068.00
2022-10-04T09:09:11.015Z,10536.00
2022-10-04T09:10:11.002Z,23296.00
2022-10-04T09:11:10.992Z,42752.00
2022-10-04T09:12:10.990Z,18272.00
2022-10-04T09:13:10.974Z,35648.00
2022-10-04T09:14:10.971Z,48736.00
2022-10-04T09:15:10.977Z,14828.00
2022-10-04T09:16:11.028Z,15976.00
2022-10-04T09:17:10.939Z,19680.00
2022-10-04T09:18:10.913Z,23488.00
2022-10-04T09:19:10.909Z,48512.00
2022-10-04T09:20:36.813Z,33056.00
2022-10-04T09:21:11.884Z,24608.00
2022-10-04T09:22:10.880Z,26176.00
2022-10-04T09:23:10.862Z,16256.00
2022-10-04T09:24:10.850Z,80640.00
2022-10-04T09:25:10.838Z,55520.00
2022-10-04T09:26:10.830Z,18592.00
2022-10-04T09:27:10.831Z,10132.00
2022-10-04T09:28:11.135Z,14176.00
2022-10-04T09:29:10.796Z,25472.00
2022-10-04T09:30:10.788Z,45408.00
2022-10-04T09:31:10.916Z,23264.00
2022-10-04T09:32:10.779Z,11236.00
2022-10-04T09:33:10.780Z,9868.00
2022-10-04T09:34:10.767Z,9576.00
2022-10-04T09:35:10.731Z,8120.00
2022-10-04T09:36:10.721Z,7292.00
2022-10-04T09:37:10.749Z,7200.00
2022-10-04T09:38:10.721Z,8068.00
2022-10-04T09:39:29.570Z,9964.00
2022-10-04T09:40:11.675Z,12772.00
2022-10-04T09:41:10.674Z,11448.00
2022-10-04T09:42:10.672Z,18560.00
2022-10-04T09:43:10.720Z,16864.00
2022-10-04T09:44:10.633Z,20960.00
2022-10-04T09:45:10.629Z,18784.00
2022-10-04T09:46:10.708Z,14852.00
2022-10-04T09:47:10.637Z,20672.00
2022-10-04T09:48:10.590Z,18528.00
2022-10-04T09:49:10.611Z,11656.00
2022-10-04T09:50:10.570Z,15092.00
2022-10-04T09:51:10.567Z,18240.00
2022-10-04T09:52:10.562Z,14548.00
2022-10-04T09:53:10.537Z,15688.00
2022-10-04T09:54:10.530Z,8788.00
2022-10-04T09:55:10.536Z,8168.00
2022-10-04T09:56:10.508Z,9336.00
2022-10-04T09:57:10.505Z,18560.00
2022-10-04T09:58:10.482Z,8424.00
2022-10-04T09:59:10.474Z,6552.00
2022-10-04T10:00:10.460Z,6700.00
2022-10-04T10:01:10.452Z,17984.00
2022-10-04T10:02:10.451Z,20576.00
2022-10-04T10:03:14.905Z,20448.00
2022-10-04T10:04:11.414Z,14992.00
2022-10-04T10:05:10.443Z,8756.00
2022-10-04T10:06:10.393Z,10108.00
2022-10-04T10:07:10.395Z,9732.00
2022-10-04T10:08:10.388Z,11776.00
2022-10-04T10:09:10.382Z,13428.00
2022-10-04T10:10:10.352Z,24928.00
2022-10-04T10:11:10.344Z,32576.00
2022-10-04T10:12:10.343Z,19424.00
2022-10-04T10:13:10.318Z,17504.00
2022-10-04T10:14:10.305Z,20864.00
2022-10-04T10:15:10.294Z,16320.00
2022-10-04T10:16:10.400Z,11760.00
2022-10-04T10:17:10.288Z,10644.00
2022-10-04T10:18:10.261Z,9256.00
2022-10-04T10:19:10.342Z,9148.00
2022-10-04T10:20:10.241Z,13788.00
2022-10-04T10:21:10.230Z,17504.00
2022-10-04T10:22:10.229Z,44192.00
2022-10-04T10:23:10.207Z,33792.00
2022-10-04T10:24:10.198Z,26304.00
2022-10-04T10:25:10.186Z,21312.00
2022-10-04T10:26:10.173Z,19360.00
2022-10-04T10:27:10.172Z,16704.00
2022-10-04T10:28:10.221Z,14304.00
2022-10-04T10:29:10.138Z,12072.00
2022-10-04T10:30:10.148Z,10920.00
2022-10-04T10:31:10.172Z,9912.00
2022-10-04T10:32:10.134Z,10248.00
2022-10-04T10:33:10.099Z,12992.00
2022-10-04T10:34:10.087Z,12972.00
2022-10-04T10:35:10.148Z,9564.00
2022-10-04T10:36:10.068Z,10248.00
2022-10-04T10:37:10.058Z,9724.00
2022-10-04T10:38:10.062Z,9092.00
2022-10-04T10:39:10.031Z,11100.00
2022-10-04T10:40:10.019Z,11464.00
2022-10-04T10:41:10.008Z,10496.00
2022-10-04T10:42:09.997Z,8120.00
2022-10-04T10:43:10.003Z,6748.00
2022-10-04T10:44:09.976Z,7108.00
2022-10-04T10:45:09.965Z,6796.00
2022-10-04T10:46:10.018Z,6404.00
2022-10-04T10:47:09.940Z,6952.00
2022-10-04T10:48:09.942Z,7784.00
2022-10-04T10:49:09.923Z,8236.00
2022-10-04T10:50:09.908Z,6860.00
2022-10-04T10:51:09.914Z,5856.00
2022-10-04T10:52:09.887Z,5592.00
2022-10-04T10:53:09.884Z,4904.00
2022-10-04T10:54:09.868Z,5080.00
2022-10-04T10:55:09.856Z,5476.00
2022-10-04T10:56:09.847Z,5480.00
2022-10-04T10:57:09.830Z,4752.00
2022-10-04T10:58:09.832Z,5428.00
2022-10-04T10:59:09.809Z,6176.00
2022-10-04T11:00:09.800Z,6736.00
2022-10-04T11:01:09.788Z,7256.00
2022-10-04T11:02:09.878Z,7080.00
2022-10-04T11:03:13.672Z,6332.00
2022-10-04T11:04:09.820Z,5688.00
2022-10-04T11:05:09.745Z,5756.00
2022-10-04T11:06:09.736Z,7972.00
2022-10-04T11:07:09.738Z,10176.00
2022-10-04T11:08:09.725Z,10840.00
2022-10-04T11:09:09.704Z,8792.00
2022-10-04T11:10:09.739Z,7580.00
2022-10-04T11:11:09.682Z,7860.00
2022-10-04T11:12:09.673Z,7920.00
2022-10-04T11:13:09.671Z,7520.00
2022-10-04T11:14:09.650Z,8020.00
2022-10-04T11:15:09.638Z,8992.00
2022-10-04T11:16:09.743Z,9688.00
2022-10-04T11:17:09.616Z,8844.00
2022-10-04T11:18:09.624Z,7600.00
2022-10-04T11:19:09.608Z,6280.00
2022-10-04T11:20:09.603Z,5304.00
2022-10-04T11:21:09.570Z,5376.00
2022-10-04T11:22:09.567Z,5296.00
2022-10-04T11:23:09.579Z,5900.00
2022-10-04T11:24:09.538Z,6632.00
2022-10-04T11:25:09.527Z,6496.00
2022-10-04T11:26:09.517Z,6656.00
2022-10-04T11:27:09.505Z,6704.00
2022-10-04T11:28:09.534Z,6824.00
2022-10-04T11:29:09.490Z,8124.00
2022-10-04T11:30:09.639Z,7812.00
2022-10-04T11:31:09.522Z,7368.00
2022-10-04T11:32:09.457Z,7384.00
2022-10-04T11:33:09.474Z,7296.00
2022-10-04T11:34:12.146Z,7316.00
2022-10-04T11:35:10.420Z,6996.00
2022-10-04T11:36:09.412Z,7360.00
2022-10-04T11:37:09.399Z,8180.00
2022-10-04T11:38:09.419Z,8716.00
2022-10-04T11:39:09.400Z,8132.00
2022-10-04T11:40:09.448Z,8308.00
2022-10-04T11:41:09.356Z,7740.00
2022-10-04T11:42:09.349Z,8264.00
2022-10-04T11:43:09.352Z,8404.00
2022-10-04T11:44:09.330Z,8664.00
2022-10-04T11:45:09.315Z,7820.00
2022-10-04T11:46:11.017Z,7356.00
2022-10-04T11:47:09.362Z,6644.00
2022-10-04T11:48:09.301Z,5904.00
2022-10-04T11:49:09.276Z,5536.00
2022-10-04T11:50:09.346Z,4756.00
2022-10-04T11:51:09.330Z,4964.00
2022-10-04T11:52:09.243Z,5204.00
2022-10-04T11:53:09.275Z,5692.00
2022-10-04T11:54:09.222Z,5716.00
2022-10-04T11:55:09.229Z,5048.00
2022-10-04T11:56:09.220Z,4388.00
2022-10-04T11:57:09.193Z,3740.00
2022-10-04T11:58:12.067Z,3916.00
2022-10-04T11:59:09.207Z,4132.00
2022-10-04T12:00:09.157Z,4352.00
2022-10-04T12:01:09.152Z,4768.00
2022-10-04T12:02:09.169Z,4672.00
2022-10-04T12:03:09.186Z,4320.00
2022-10-04T12:04:09.211Z,4020.00
2022-10-04T12:05:09.113Z,3644.00
2022-10-04T12:06:09.135Z,3852.00
2022-10-04T12:07:09.083Z,4152.00
2022-10-04T12:08:09.087Z,4220.00
2022-10-04T12:09:09.063Z,4180.00
2022-10-04T12:10:09.069Z,3816.00
2022-10-04T12:11:09.066Z,3628.00
2022-10-04T12:12:09.034Z,3872.00
2022-10-04T12:13:09.038Z,3816.00
2022-10-04T12:14:09.022Z,3924.00
2022-10-04T12:15:09.012Z,4644.00
2022-10-04T12:16:09.121Z,4988.00
2022-10-04T12:17:08.983Z,5568.00
2022-10-04T12:18:09.004Z,6452.00
2022-10-04T12:19:08.958Z,6816.00
2022-10-04T12:20:12.136Z,6752.00
2022-10-04T12:21:08.936Z,6804.00
2022-10-04T12:22:08.928Z,6676.00
2022-10-04T12:23:08.927Z,6540.00
2022-10-04T12:24:08.907Z,6036.00
2022-10-04T12:25:08.895Z,6056.00
2022-10-04T12:26:08.887Z,5932.00
2022-10-04T12:27:08.891Z,5824.00
2022-10-04T12:28:08.913Z,5552.00
2022-10-04T12:29:23.631Z,4984.00
2022-10-04T12:30:08.849Z,4844.00
2022-10-04T12:31:08.866Z,4912.00
2022-10-04T12:32:08.823Z,4800.00